createdAt,value
2023-02-08T00:01:35.599Z,93.07
2023-02-08T00:04:01.960Z,93.73
2023-02-08T00:06:28.291Z,93.38
2023-02-08T00:08:54.610Z,93.11
2023-02-08T00:11:21.090Z,93.40
2023-02-08T00:13:47.420Z,94.09
2023-02-08T00:16:13.880Z,93.45
2023-02-08T00:18:40.266Z,91.56
2023-02-08T00:21:06.585Z,91.35
2023-02-08T00:23:32.918Z,91.75
2023-02-08T00:25:59.235Z,92.19
2023-02-08T00:28:25.632Z,93.62
2023-02-08T00:30:52.025Z,93.36
2023-02-08T00:33:18.344Z,93.19
2023-02-08T00:35:44.651Z,92.82
2023-02-08T00:38:10.962Z,92.35
2023-02-08T00:40:37.472Z,93.48
2023-02-08T00:43:03.862Z,93.16
2023-02-08T00:45:30.235Z,92.22
2023-02-08T00:47:56.610Z,91.19
2023-02-08T00:50:22.938Z,91.28
2023-02-08T00:52:49.253Z,91.73
2023-02-08T00:55:15.576Z,90.93
2023-02-08T00:57:41.897Z,92.19
2023-02-08T01:00:09.181Z,92.21
2023-02-08T01:02:35.492Z,92.36
2023-02-08T01:05:01.854Z,93.62
2023-02-08T01:07:28.213Z,93.69
2023-02-08T01:09:54.567Z,93.57
2023-02-08T01:12:20.898Z,93.88
2023-02-08T01:14:47.231Z,93.34
2023-02-08T01:17:13.580Z,92.77
2023-02-08T01:19:42.379Z,92.52
2023-02-08T01:22:08.877Z,91.30
2023-02-08T01:24:35.214Z,91.01
2023-02-08T01:27:01.558Z,90.93
2023-02-08T01:29:27.909Z,91.17
2023-02-08T01:31:54.311Z,91.27
2023-02-08T01:34:20.649Z,92.05
2023-02-08T01:36:46.954Z,93.54
2023-02-08T01:39:13.342Z,93.42
2023-02-08T01:41:39.727Z,93.01
2023-02-08T01:44:06.136Z,93.13
2023-02-08T01:46:32.481Z,92.90
2023-02-08T01:48:58.877Z,93.08
2023-02-08T01:51:25.199Z,92.40
2023-02-08T01:53:51.554Z,91.86
2023-02-08T01:56:17.881Z,92.43
2023-02-08T01:58:44.180Z,92.92
2023-02-08T02:01:10.626Z,93.07
2023-02-08T02:03:36.950Z,93.16
2023-02-08T02:06:03.278Z,92.76
2023-02-08T02:08:29.590Z,93.72
2023-02-08T02:10:55.917Z,93.06
2023-02-08T02:13:22.252Z,92.21
2023-02-08T02:15:48.820Z,92.25
2023-02-08T02:18:15.127Z,92.54
2023-02-08T02:20:41.740Z,92.43
2023-02-08T02:23:08.295Z,92.50
2023-02-08T02:25:34.617Z,92.15
2023-02-08T02:28:01.002Z,92.59
2023-02-08T02:30:27.346Z,92.14
2023-02-08T02:32:53.678Z,92.02
2023-02-08T02:35:20.012Z,91.76
2023-02-08T02:37:49.217Z,91.46
2023-02-08T02:40:15.517Z,91.30
2023-02-08T02:43:00.720Z,91.32
2023-02-08T02:45:27.056Z,91.25
2023-02-08T02:47:53.401Z,91.46
2023-02-08T02:50:19.784Z,91.40
2023-02-08T02:52:46.136Z,91.81
2023-02-08T02:55:12.444Z,92.29
2023-02-08T02:57:38.761Z,92.10
2023-02-08T03:00:05.079Z,92.07
2023-02-08T03:02:31.389Z,92.70
2023-02-08T03:04:57.716Z,92.93
2023-02-08T03:07:24.041Z,93.27
2023-02-08T03:09:50.538Z,92.20
2023-02-08T03:12:16.905Z,91.99
2023-02-08T03:14:43.224Z,92.71
2023-02-08T03:17:09.538Z,93.27
2023-02-08T03:19:36.280Z,92.12
2023-02-08T03:22:02.661Z,91.19
2023-02-08T03:24:29.007Z,91.00
2023-02-08T03:26:55.426Z,91.54
2023-02-08T03:29:21.729Z,90.53
2023-02-08T03:31:48.135Z,90.48
2023-02-08T03:34:14.605Z,91.21
2023-02-08T03:36:40.926Z,91.60
2023-02-08T03:39:07.672Z,92.66
2023-02-08T03:41:34.070Z,92.87
2023-02-08T03:44:00.398Z,91.81
2023-02-08T03:46:26.825Z,91.80
2023-02-08T03:48:53.158Z,91.80
2023-02-08T03:51:19.476Z,91.67
2023-02-08T03:53:45.785Z,91.15
2023-02-08T03:56:12.174Z,90.65
2023-02-08T03:58:38.495Z,92.41
2023-02-08T04:01:04.839Z,93.04
2023-02-08T04:03:31.185Z,92.30
2023-02-08T04:05:57.507Z,91.70
2023-02-08T04:08:23.875Z,91.99
2023-02-08T04:10:50.202Z,91.94
2023-02-08T04:13:16.590Z,92.22
2023-02-08T04:15:44.456Z,92.00
2023-02-08T04:18:10.839Z,91.42
2023-02-08T04:20:37.183Z,91.08
2023-02-08T04:23:03.579Z,91.33
2023-02-08T04:25:29.909Z,90.75
2023-02-08T04:27:56.216Z,90.73
2023-02-08T04:30:22.545Z,91.42
2023-02-08T04:32:48.897Z,91.59
2023-02-08T04:35:15.216Z,90.56
2023-02-08T04:37:41.535Z,90.79
2023-02-08T04:40:07.837Z,91.24
2023-02-08T04:42:34.237Z,91.11
2023-02-08T04:45:00.576Z,90.41
2023-02-08T04:47:26.895Z,89.95
2023-02-08T04:49:53.237Z,90.69
2023-02-08T04:52:19.551Z,90.47
2023-02-08T04:54:45.883Z,90.29
2023-02-08T04:57:12.228Z,90.46
2023-02-08T04:59:38.532Z,89.87
2023-02-08T05:02:04.993Z,89.89
2023-02-08T05:04:31.300Z,89.37
2023-02-08T05:06:57.625Z,90.18
2023-02-08T05:09:24.063Z,91.22
2023-02-08T05:11:50.400Z,90.96
2023-02-08T05:14:16.715Z,91.70
2023-02-08T05:16:43.063Z,92.09
2023-02-08T05:19:09.380Z,92.70
2023-02-08T05:21:35.702Z,93.08
2023-02-08T05:24:02.022Z,94.06
2023-02-08T05:26:28.438Z,93.21
2023-02-08T05:28:54.759Z,93.06
2023-02-08T05:31:21.364Z,93.23
2023-02-08T05:33:47.724Z,93.36
2023-02-08T05:36:14.031Z,93.03
2023-02-08T05:38:40.335Z,93.09
2023-02-08T05:41:06.640Z,93.36
2023-02-08T05:43:32.993Z,93.29
2023-02-08T05:45:59.314Z,93.77
2023-02-08T05:48:25.695Z,94.03
2023-02-08T05:50:52.062Z,94.12
2023-02-08T05:53:18.428Z,94.34
2023-02-08T05:55:45.100Z,95.29
2023-02-08T05:58:11.393Z,95.98
2023-02-08T06:00:37.714Z,95.52
2023-02-08T06:03:04.148Z,95.28
2023-02-08T06:05:30.562Z,95.05
2023-02-08T06:07:56.858Z,95.08
2023-02-08T06:10:23.177Z,95.33
2023-02-08T06:12:49.479Z,95.27
2023-02-08T06:15:15.795Z,95.42
2023-02-08T06:17:42.105Z,95.63
2023-02-08T06:20:08.424Z,95.48
2023-02-08T06:22:34.793Z,95.53
2023-02-08T06:25:01.093Z,95.36
2023-02-08T06:27:27.712Z,95.56
2023-02-08T06:29:54.064Z,95.21
2023-02-08T06:32:20.424Z,95.14
2023-02-08T06:34:48.354Z,94.76
2023-02-08T06:37:14.678Z,94.79
2023-02-08T06:39:41.547Z,94.62
2023-02-08T06:42:07.879Z,94.14
2023-02-08T06:44:34.196Z,93.83
2023-02-08T06:47:00.524Z,93.70
2023-02-08T06:49:26.842Z,93.61
2023-02-08T06:51:53.155Z,93.25
2023-02-08T06:54:19.511Z,93.11
2023-02-08T06:56:45.826Z,92.91
2023-02-08T06:59:12.138Z,92.88
2023-02-08T07:01:38.461Z,92.72
2023-02-08T07:04:04.785Z,92.47
2023-02-08T07:06:31.088Z,92.17
2023-02-08T07:08:57.405Z,91.77
2023-02-08T07:11:23.720Z,91.45
2023-02-08T07:13:50.063Z,90.90
2023-02-08T07:16:16.454Z,90.74
2023-02-08T07:18:42.769Z,90.11
2023-02-08T07:21:10.642Z,89.39
2023-02-08T07:23:36.983Z,89.54
2023-02-08T07:26:03.286Z,89.08
2023-02-08T07:28:29.592Z,88.16
2023-02-08T07:30:55.922Z,87.78
2023-02-08T07:33:22.216Z,87.55
2023-02-08T07:35:48.526Z,87.52
2023-02-08T07:38:14.860Z,86.27
2023-02-08T07:40:41.492Z,86.29
2023-02-08T07:43:07.989Z,85.91
2023-02-08T07:45:34.414Z,85.84
2023-02-08T07:48:00.740Z,85.04
2023-02-08T07:50:27.043Z,84.86
2023-02-08T07:52:53.389Z,84.64
2023-02-08T07:55:20.597Z,84.48
2023-02-08T07:57:47.436Z,84.16
2023-02-08T08:00:13.757Z,83.35
2023-02-08T08:02:40.122Z,82.79
2023-02-08T08:05:06.443Z,82.41
2023-02-08T08:07:32.803Z,82.37
2023-02-08T08:09:59.184Z,81.54
2023-02-08T08:12:25.569Z,81.25
2023-02-08T08:14:51.888Z,81.53
2023-02-08T08:17:18.211Z,81.38
2023-02-08T08:19:44.549Z,80.89
2023-02-08T08:22:10.843Z,80.27
2023-02-08T08:24:37.279Z,79.76
2023-02-08T08:27:04.756Z,78.79
2023-02-08T08:29:31.203Z,78.70
2023-02-08T08:31:57.534Z,78.94
2023-02-08T08:34:29.823Z,77.98
2023-02-08T08:36:56.162Z,78.42
2023-02-08T08:39:22.504Z,77.33
2023-02-08T08:41:48.814Z,77.90
2023-02-08T08:44:15.151Z,77.13
2023-02-08T08:46:41.665Z,76.69
2023-02-08T08:49:08.014Z,76.86
2023-02-08T08:51:35.552Z,76.83
2023-02-08T08:54:01.892Z,75.97
2023-02-08T08:56:28.238Z,75.30
2023-02-08T08:58:54.550Z,75.09
2023-02-08T09:01:21.023Z,74.77
2023-02-08T09:03:47.395Z,73.89
2023-02-08T09:06:13.738Z,73.56
2023-02-08T09:08:40.074Z,73.88
2023-02-08T09:11:06.439Z,73.67
2023-02-08T09:13:32.756Z,72.61
2023-02-08T09:15:59.274Z,71.98
2023-02-08T09:18:25.638Z,71.47
2023-02-08T09:20:51.958Z,71.75
2023-02-08T09:23:18.277Z,71.12
2023-02-08T09:25:44.674Z,70.60
2023-02-08T09:28:11.122Z,70.00
2023-02-08T09:30:37.530Z,70.31
2023-02-08T09:33:03.840Z,69.71
2023-02-08T09:35:30.408Z,69.70
2023-02-08T09:37:58.296Z,68.97
2023-02-08T09:40:24.710Z,68.00
2023-02-08T09:42:51.018Z,67.60
2023-02-08T09:45:17.357Z,67.42
2023-02-08T09:47:43.674Z,66.82
2023-02-08T09:50:09.984Z,66.44
2023-02-08T09:52:36.338Z,66.85
2023-02-08T09:55:02.702Z,66.68
2023-02-08T09:57:29.053Z,66.45
2023-02-08T09:59:55.434Z,65.96
2023-02-08T10:02:21.749Z,66.62
2023-02-08T10:04:48.056Z,66.23
2023-02-08T10:07:14.405Z,66.22
2023-02-08T10:09:40.728Z,64.79
2023-02-08T10:12:07.087Z,64.14
2023-02-08T10:14:33.404Z,64.00
2023-02-08T10:16:59.897Z,62.63
2023-02-08T10:19:26.201Z,62.51
2023-02-08T10:21:52.495Z,63.25
2023-02-08T10:24:18.812Z,63.54
2023-02-08T10:26:45.216Z,63.29
2023-02-08T10:29:11.566Z,63.30
2023-02-08T10:31:38.016Z,62.86
2023-02-08T10:34:05.513Z,62.11
2023-02-08T10:36:33.340Z,61.76
2023-02-08T10:38:59.657Z,61.45
2023-02-08T10:41:25.970Z,61.40
2023-02-08T10:43:52.573Z,60.60
2023-02-08T10:46:18.995Z,61.73
2023-02-08T10:48:45.347Z,61.21
2023-02-08T10:51:11.876Z,61.23
2023-02-08T10:53:38.255Z,61.37
2023-02-08T10:56:04.590Z,61.29
2023-02-08T10:58:30.984Z,60.84
2023-02-08T11:00:58.616Z,60.89
2023-02-08T11:03:25.034Z,61.58
2023-02-08T11:05:51.602Z,60.49
2023-02-08T11:08:19.776Z,59.55
2023-02-08T11:10:46.099Z,59.96
2023-02-08T11:13:12.418Z,59.64
2023-02-08T11:15:39.038Z,60.26
2023-02-08T11:18:05.358Z,60.19
2023-02-08T11:20:31.753Z,59.44
2023-02-08T11:22:58.067Z,59.15
2023-02-08T11:25:24.391Z,59.97
2023-02-08T11:27:50.831Z,59.16
2023-02-08T11:30:18.125Z,59.57
2023-02-08T11:32:44.445Z,58.98
2023-02-08T11:35:10.766Z,57.73
2023-02-08T11:37:37.121Z,58.12
2023-02-08T11:40:03.970Z,58.04
2023-02-08T11:42:30.340Z,58.77
2023-02-08T11:44:56.679Z,58.62
2023-02-08T11:47:22.997Z,57.72
2023-02-08T11:49:49.325Z,58.09
2023-02-08T11:52:15.634Z,57.28
2023-02-08T11:54:42.063Z,57.57
2023-02-08T11:57:08.389Z,58.12
2023-02-08T11:59:34.720Z,57.39
2023-02-08T12:02:01.031Z,57.32
2023-02-08T12:04:27.345Z,57.66
2023-02-08T12:06:53.674Z,57.47
2023-02-08T12:09:19.977Z,57.27
2023-02-08T12:11:46.305Z,57.20
2023-02-08T12:14:13.104Z,57.77
2023-02-08T12:16:39.515Z,57.71
2023-02-08T12:19:05.895Z,56.89
2023-02-08T12:21:32.204Z,55.95
2023-02-08T12:23:59.240Z,56.22
2023-02-08T12:26:25.564Z,56.37
2023-02-08T12:28:51.906Z,57.03
2023-02-08T12:31:18.364Z,57.06
2023-02-08T12:33:44.722Z,57.20
2023-02-08T12:36:11.456Z,57.36
2023-02-08T12:38:56.954Z,57.82
2023-02-08T12:41:23.584Z,57.50
2023-02-08T12:43:49.988Z,56.76
2023-02-08T12:46:16.308Z,56.97
2023-02-08T12:48:42.634Z,57.20
2023-02-08T12:51:08.999Z,56.64
2023-02-08T12:53:35.341Z,56.37
2023-02-08T12:56:01.655Z,55.86
2023-02-08T12:58:28.021Z,55.56
2023-02-08T13:00:54.395Z,55.41
2023-02-08T13:03:20.738Z,55.51
2023-02-08T13:06:01.355Z,55.14
2023-02-08T13:08:28.699Z,55.69
2023-02-08T13:10:55.028Z,55.77
2023-02-08T13:13:21.341Z,55.27
2023-02-08T13:15:47.888Z,55.67
2023-02-08T13:18:14.298Z,55.60
2023-02-08T13:20:40.654Z,55.62
2023-02-08T13:23:06.975Z,55.60
2023-02-08T13:25:33.311Z,55.77
2023-02-08T13:27:59.659Z,55.84
2023-02-08T13:30:26.036Z,55.77
2023-02-08T13:32:52.379Z,55.65
2023-02-08T13:35:18.700Z,55.60
2023-02-08T13:37:45.042Z,56.26
2023-02-08T13:40:11.409Z,55.97
2023-02-08T13:42:38.167Z,56.01
2023-02-08T13:45:04.474Z,56.44
2023-02-08T13:47:30.779Z,56.27
2023-02-08T13:49:57.164Z,56.52
2023-02-08T13:52:23.483Z,56.58
2023-02-08T13:54:49.789Z,56.58
2023-02-08T13:57:16.100Z,56.69
2023-02-08T13:59:42.533Z,56.81
2023-02-08T14:02:08.862Z,56.66
2023-02-08T14:04:35.272Z,56.57
2023-02-08T14:07:01.634Z,56.59
2023-02-08T14:09:28.056Z,56.83
2023-02-08T14:11:54.442Z,57.76
2023-02-08T14:14:20.803Z,56.83
2023-02-08T14:16:47.144Z,56.97
2023-02-08T14:19:13.467Z,56.88
2023-02-08T14:21:39.867Z,56.58
2023-02-08T14:24:06.315Z,56.86
2023-02-08T14:26:32.716Z,56.46
2023-02-08T14:28:59.087Z,56.82
2023-02-08T14:31:26.201Z,56.78
2023-02-08T14:33:53.075Z,56.71
2023-02-08T14:36:19.412Z,56.71
2023-02-08T14:38:45.738Z,56.85
2023-02-08T14:41:12.059Z,56.82
2023-02-08T14:43:38.449Z,56.84
2023-02-08T14:46:04.774Z,57.05
2023-02-08T14:48:31.158Z,57.39
2023-02-08T14:50:57.496Z,57.74
2023-02-08T14:53:23.803Z,57.59
2023-02-08T14:55:50.342Z,57.59
2023-02-08T14:58:16.709Z,57.85
2023-02-08T15:00:43.035Z,57.85
2023-02-08T15:03:09.338Z,58.10
2023-02-08T15:05:35.670Z,58.29
2023-02-08T15:08:02.116Z,58.72
2023-02-08T15:10:30.305Z,59.12
2023-02-08T15:12:57.765Z,59.09
2023-02-08T15:15:24.181Z,59.63
2023-02-08T15:17:50.581Z,59.61
2023-02-08T15:20:17.036Z,59.95
2023-02-08T15:22:43.393Z,59.83
2023-02-08T15:25:09.714Z,60.21
2023-02-08T15:27:36.069Z,60.11
2023-02-08T15:30:02.434Z,60.24
2023-02-08T15:32:28.778Z,60.32
2023-02-08T15:34:55.154Z,60.59
2023-02-08T15:37:21.487Z,60.35
2023-02-08T15:39:47.810Z,60.63
2023-02-08T15:42:14.124Z,60.51
2023-02-08T15:44:40.454Z,61.04
2023-02-08T15:47:06.753Z,61.17
2023-02-08T15:49:33.146Z,61.40
2023-02-08T15:51:59.481Z,60.64
2023-02-08T15:54:25.913Z,59.45
2023-02-08T15:56:52.278Z,59.03
2023-02-08T15:59:18.602Z,58.43
2023-02-08T16:01:44.924Z,59.46
2023-02-08T16:04:12.716Z,58.51
2023-02-08T16:06:39.178Z,59.37
2023-02-08T16:09:05.902Z,59.55
2023-02-08T16:11:32.262Z,58.71
2023-02-08T16:13:58.591Z,59.58
2023-02-08T16:16:30.124Z,59.54
2023-02-08T16:18:58.424Z,59.81
2023-02-08T16:21:24.830Z,59.25
2023-02-08T16:23:51.354Z,59.41
2023-02-08T16:26:17.927Z,59.79
2023-02-08T16:28:44.336Z,60.25
2023-02-08T16:31:11.527Z,61.17
2023-02-08T16:33:39.676Z,61.04
2023-02-08T16:36:06.013Z,61.09
2023-02-08T16:38:32.400Z,60.70
2023-02-08T16:41:12.075Z,60.06
2023-02-08T16:43:40.280Z,60.12
2023-02-08T16:46:06.605Z,60.24
2023-02-08T16:48:34.967Z,60.58
2023-02-08T16:51:01.300Z,60.76
2023-02-08T16:53:40.255Z,60.61
2023-02-08T16:56:08.137Z,61.28
2023-02-08T16:58:34.485Z,61.72
2023-02-08T17:01:00.875Z,61.82
2023-02-08T17:03:27.319Z,62.19
2023-02-08T17:05:53.652Z,62.02
2023-02-08T17:08:19.962Z,62.48
2023-02-08T17:10:48.609Z,62.85
2023-02-08T17:13:20.804Z,62.76
2023-02-08T17:15:47.831Z,62.83
2023-02-08T17:18:14.392Z,63.17
2023-02-08T17:20:40.741Z,63.33
2023-02-08T17:23:07.089Z,63.19
2023-02-08T17:25:37.117Z,64.64
2023-02-08T17:28:03.478Z,65.15
2023-02-08T17:30:29.796Z,65.03
2023-02-08T17:32:59.320Z,65.34
2023-02-08T17:35:25.653Z,65.61
2023-02-08T17:37:53.988Z,65.68
2023-02-08T17:40:20.366Z,66.11
2023-02-08T17:42:47.693Z,65.49
2023-02-08T17:45:14.148Z,65.62
2023-02-08T17:47:41.803Z,65.75
2023-02-08T17:50:08.146Z,65.93
2023-02-08T17:52:34.476Z,66.03
2023-02-08T17:55:00.845Z,66.17
2023-02-08T17:57:27.248Z,66.74
2023-02-08T17:59:53.641Z,66.41
2023-02-08T18:02:20.124Z,66.74
2023-02-08T18:04:46.470Z,66.51
2023-02-08T18:07:12.851Z,66.04
2023-02-08T18:09:39.544Z,66.76
2023-02-08T18:12:05.932Z,67.38
2023-02-08T18:14:32.244Z,67.80
2023-02-08T18:16:58.572Z,68.05
2023-02-08T18:19:24.886Z,67.96
2023-02-08T18:21:51.266Z,68.44
2023-02-08T18:24:18.871Z,68.72
2023-02-08T18:26:45.197Z,68.49
2023-02-08T18:29:15.064Z,69.08
2023-02-08T18:31:41.585Z,68.85
2023-02-08T18:34:08.005Z,68.95
2023-02-08T18:36:34.426Z,69.08
2023-02-08T18:39:00.763Z,69.27
2023-02-08T18:41:27.124Z,69.92
2023-02-08T18:43:54.910Z,70.19
2023-02-08T18:46:21.285Z,70.55
2023-02-08T18:48:47.986Z,70.39
2023-02-08T18:51:14.719Z,70.33
2023-02-08T18:53:41.023Z,70.49
2023-02-08T18:56:07.355Z,70.70
2023-02-08T18:58:33.661Z,70.52
2023-02-08T19:01:00.039Z,69.99
2023-02-08T19:03:26.475Z,70.38
2023-02-08T19:05:52.799Z,69.75
2023-02-08T19:08:20.659Z,69.99
2023-02-08T19:10:46.981Z,70.34
2023-02-08T19:13:13.406Z,70.33
2023-02-08T19:15:39.790Z,70.68
2023-02-08T19:18:06.158Z,70.77
2023-02-08T19:20:32.491Z,71.16
2023-02-08T19:22:58.959Z,70.85
2023-02-08T19:25:29.005Z,71.16
2023-02-08T19:27:55.383Z,71.48
2023-02-08T19:30:22.313Z,71.58
2023-02-08T19:32:48.777Z,71.64
2023-02-08T19:35:15.080Z,71.42
2023-02-08T19:37:42.545Z,71.35
2023-02-08T19:40:08.933Z,71.29
2023-02-08T19:42:35.424Z,71.37
2023-02-08T19:45:01.890Z,72.04
2023-02-08T19:47:48.421Z,71.53
2023-02-08T19:50:14.574Z,71.65
2023-02-08T19:52:43.423Z,71.47
2023-02-08T19:55:09.853Z,71.12
2023-02-08T19:57:36.225Z,71.23
2023-02-08T20:00:04.408Z,70.92
2023-02-08T20:02:32.762Z,71.30
2023-02-08T20:04:59.194Z,71.08
2023-02-08T20:07:25.526Z,70.38
2023-02-08T20:09:51.832Z,70.20
2023-02-08T20:12:19.789Z,70.18
2023-02-08T20:14:46.174Z,69.63
2023-02-08T20:17:12.499Z,69.75
2023-02-08T20:19:38.861Z,69.40
2023-02-08T20:22:05.243Z,69.23
2023-02-08T20:24:31.723Z,69.21
2023-02-08T20:26:58.039Z,69.00
2023-02-08T20:29:25.175Z,68.96
2023-02-08T20:31:58.254Z,68.89
2023-02-08T20:34:24.644Z,68.88
2023-02-08T20:37:05.753Z,69.18
2023-02-08T20:39:33.500Z,68.89
2023-02-08T20:41:59.883Z,68.84
2023-02-08T20:44:26.255Z,68.95
2023-02-08T20:46:54.642Z,68.43
2023-02-08T20:49:25.489Z,68.45
2023-02-08T20:51:52.420Z,68.82
2023-02-08T20:54:19.269Z,68.62
2023-02-08T20:56:45.597Z,68.44
2023-02-08T20:59:13.816Z,68.21
2023-02-08T21:01:40.301Z,68.42
2023-02-08T21:04:06.783Z,68.20
2023-02-08T21:06:33.169Z,68.12
2023-02-08T21:08:59.531Z,68.13
2023-02-08T21:11:25.836Z,67.98
2023-02-08T21:13:52.183Z,67.73
2023-02-08T21:16:18.587Z,67.41
2023-02-08T21:18:45.792Z,67.35
2023-02-08T21:21:12.135Z,66.82
2023-02-08T21:23:38.435Z,66.85
2023-02-08T21:26:04.800Z,66.29
2023-02-08T21:28:31.218Z,66.04
2023-02-08T21:30:57.714Z,65.78
2023-02-08T21:33:24.135Z,65.63
2023-02-08T21:35:50.450Z,65.40
2023-02-08T21:38:16.761Z,64.83
2023-02-08T21:40:43.411Z,64.58
2023-02-08T21:43:09.968Z,64.42
2023-02-08T21:45:36.270Z,64.27
2023-02-08T21:48:02.607Z,63.55
2023-02-08T21:50:47.902Z,63.37
2023-02-08T21:53:32.754Z,63.25
2023-02-08T21:55:59.136Z,63.07
2023-02-08T21:58:25.478Z,62.83
2023-02-08T22:00:51.793Z,63.04
2023-02-08T22:03:18.254Z,62.94
2023-02-08T22:05:44.573Z,62.97
2023-02-08T22:08:10.980Z,63.02
2023-02-08T22:10:38.254Z,62.90
2023-02-08T22:13:04.607Z,62.94
2023-02-08T22:15:31.048Z,63.03
2023-02-08T22:17:57.429Z,63.18
2023-02-08T22:20:23.747Z,63.19
2023-02-08T22:22:53.613Z,63.22
2023-02-08T22:25:21.239Z,62.97
2023-02-08T22:27:47.582Z,62.99
2023-02-08T22:30:13.891Z,62.62
2023-02-08T22:32:40.310Z,63.26
2023-02-08T22:35:06.665Z,63.60
2023-02-08T22:37:32.985Z,63.41
2023-02-08T22:39:59.308Z,63.15
2023-02-08T22:42:27.835Z,63.13
2023-02-08T22:44:54.148Z,63.08
2023-02-08T22:47:20.457Z,62.95
2023-02-08T22:49:46.802Z,63.12
2023-02-08T22:52:14.341Z,63.21
2023-02-08T22:54:40.661Z,63.07
2023-02-08T22:57:07.054Z,63.36
2023-02-08T22:59:33.480Z,63.68
2023-02-08T23:02:01.744Z,63.70
2023-02-08T23:04:28.140Z,63.65
2023-02-08T23:06:54.546Z,63.48
2023-02-08T23:09:20.846Z,63.75
2023-02-08T23:11:47.181Z,63.78
2023-02-08T23:14:13.494Z,63.75
2023-02-08T23:16:39.818Z,64.04
2023-02-08T23:19:06.179Z,63.50
2023-02-08T23:21:32.509Z,63.85
2023-02-08T23:23:58.815Z,63.74
2023-02-08T23:26:25.112Z,63.88
2023-02-08T23:28:51.425Z,63.63
2023-02-08T23:31:17.886Z,63.57
2023-02-08T23:33:44.286Z,63.91
2023-02-08T23:36:11.336Z,64.03
2023-02-08T23:38:37.656Z,64.26
2023-02-08T23:41:04.048Z,64.34
2023-02-08T23:43:30.352Z,63.46
2023-02-08T23:45:56.676Z,63.93
2023-02-08T23:48:22.993Z,63.67
2023-02-08T23:50:49.297Z,63.98
2023-02-08T23:53:15.608Z,63.77
2023-02-08T23:55:41.914Z,63.87
2023-02-08T23:58:08.216Z,63.69
